Time;durP1;ratioP1;P1;durP2;ratioP2;P2;SDS_P1;SDS_P2;PMS_P1;PMS_P2;Temp;Humidity;BMP_temperature;BMP_pressure;BME280_temperature;BME280_humidity;BME280_pressure;Samples;Min_cycle;Max_cycle;Signal;HPM_P1;HPM_P2
2023/10/17 00:00:28;;;;;;;4.63;4.23;;;4.70;99.90;;;;;;5011069;28;20469;-68
2023/10/17 00:02:54;;;;;;;5.77;4.37;;;4.80;99.90;;;;;;5016410;28;20440;-69
2023/10/17 00:05:21;;;;;;;3.90;3.60;;;4.80;99.90;;;;;;5018844;28;20476;-68
2023/10/17 00:07:46;;;;;;;5.23;4.57;;;4.70;99.90;;;;;;5025035;28;20194;-68
2023/10/17 00:10:17;;;;;;;4.37;3.97;;;4.70;99.90;;;;;;5016425;28;20909;-67
2023/10/17 00:12:50;;;;;;;5.00;4.00;;;4.70;99.90;;;;;;5011795;28;20641;-68
2023/10/17 00:15:29;;;;;;;4.87;4.40;;;4.60;99.90;;;;;;5012488;28;20414;-69
2023/10/17 00:18:11;;;;;;;5.13;4.70;;;4.60;99.90;;;;;;5018793;28;20978;-69
2023/10/17 00:20:37;;;;;;;4.23;3.90;;;4.60;99.90;;;;;;5008833;28;20559;-69
2023/10/17 00:23:07;;;;;;;5.23;4.30;;;4.60;99.90;;;;;;5011298;28;20442;-68
2023/10/17 00:25:33;;;;;;;4.33;3.93;;;4.50;99.90;;;;;;5029165;28;20636;-69
2023/10/17 00:27:59;;;;;;;5.20;4.70;;;4.50;99.90;;;;;;5020016;28;20783;-68
2023/10/17 00:30:29;;;;;;;7.53;5.37;;;4.40;99.90;;;;;;5013665;28;20440;-68
2023/10/17 00:32:55;;;;;;;5.67;5.13;;;4.40;99.90;;;;;;5011627;28;20179;-69
2023/10/17 00:35:25;;;;;;;6.63;4.70;;;4.40;99.90;;;;;;5011839;28;20433;-67
2023/10/17 00:37:57;;;;;;;6.57;4.93;;;4.50;99.90;;;;;;5014586;28;20532;-68
2023/10/17 00:40:34;;;;;;;4.37;4.00;;;4.50;99.90;;;;;;5009375;28;20951;-68
2023/10/17 00:43:00;;;;;;;7.93;4.93;;;4.40;99.90;;;;;;4993167;28;20476;-68
2023/10/17 00:45:26;;;;;;;5.10;4.53;;;4.40;99.90;;;;;;5021580;28;20548;-68
2023/10/17 00:47:52;;;;;;;5.30;4.40;;;4.30;99.90;;;;;;5022870;28;20523;-69
2023/10/17 00:50:19;;;;;;;6.10;3.90;;;4.20;99.90;;;;;;5015455;28;20201;-69
2023/10/17 00:52:45;;;;;;;5.30;4.37;;;4.20;99.90;;;;;;5015718;28;20798;-68
2023/10/17 00:55:11;;;;;;;6.10;4.70;;;4.20;99.90;;;;;;5024899;28;20438;-68
2023/10/17 00:57:37;;;;;;;5.87;5.00;;;4.10;99.90;;;;;;5011872;28;20170;-68
2023/10/17 01:00:49;;;;;;;4.80;4.40;;;4.10;99.90;;;;;;5010813;28;20444;-68
2023/10/17 01:02:58;;;;;;;5.17;4.60;;;4.10;99.90;;;;;;4999491;28;20445;-69
2023/10/17 01:05:23;;;;;;;5.27;4.80;;;4.10;99.90;;;;;;5011786;28;20457;-68
2023/10/17 01:07:49;;;;;;;7.83;5.83;;;4.10;99.90;;;;;;4996055;28;20444;-69
2023/10/17 01:10:17;;;;;;;7.87;5.53;;;4.10;99.90;;;;;;5014832;28;20175;-68
2023/10/17 01:12:54;;;;;;;4.70;4.20;;;4.00;99.90;;;;;;5014345;28;20628;-69
2023/10/17 01:15:20;;;;;;;4.67;4.20;;;4.00;99.90;;;;;;5006289;28;20438;-69
2023/10/17 01:17:46;;;;;;;5.30;4.90;;;4.00;99.90;;;;;;4998560;28;20954;-68
2023/10/17 01:20:18;;;;;;;8.57;5.57;;;3.90;99.90;;;;;;5015661;28;20437;-69
2023/10/17 01:22:44;;;;;;;5.73;5.23;;;3.90;99.90;;;;;;5014523;28;20214;-68
2023/10/17 01:25:24;;;;;;;6.60;5.90;;;3.80;99.90;;;;;;5014334;28;20465;-68
2023/10/17 01:27:50;;;;;;;5.87;4.90;;;3.80;99.90;;;;;;5015227;28;20190;-68
2023/10/17 01:30:16;;;;;;;6.50;5.77;;;3.80;99.90;;;;;;5019475;28;20465;-68
2023/10/17 01:32:42;;;;;;;5.63;5.03;;;3.90;99.90;;;;;;5017507;28;20170;-68
2023/10/17 01:35:09;;;;;;;5.37;4.87;;;3.80;99.90;;;;;;5030152;28;20836;-69
2023/10/17 01:37:36;;;;;;;8.83;5.83;;;3.80;99.90;;;;;;5022557;28;20182;-69
2023/10/17 01:40:08;;;;;;;6.47;5.90;;;3.70;99.90;;;;;;5011371;28;20442;-69
2023/10/17 01:42:33;;;;;;;6.30;5.37;;;3.70;99.90;;;;;;5016743;28;20449;-69
2023/10/17 01:44:59;;;;;;;7.03;6.33;;;3.70;99.90;;;;;;5023464;28;20480;-68
2023/10/17 01:47:26;;;;;;;5.97;5.37;;;3.70;99.90;;;;;;5023803;28;20175;-69
2023/10/17 01:49:51;;;;;;;5.80;5.30;;;3.70;99.90;;;;;;5013520;28;20183;-68
2023/10/17 01:52:17;;;;;;;5.63;5.13;;;3.70;99.90;;;;;;5007087;28;20799;-68
2023/10/17 01:54:47;;;;;;;5.47;4.97;;;3.70;99.90;;;;;;5014178;28;20183;-69
2023/10/17 01:57:13;;;;;;;5.90;5.30;;;3.60;99.90;;;;;;5014939;28;20641;-69
2023/10/17 01:59:38;;;;;;;6.33;5.47;;;3.60;99.90;;;;;;5012515;28;20492;-69
2023/10/17 02:02:04;;;;;;;6.40;5.80;;;3.50;99.90;;;;;;5011618;28;20209;-69
2023/10/17 02:04:34;;;;;;;6.37;5.77;;;3.50;99.90;;;;;;5011846;28;20345;-68
2023/10/17 02:07:00;;;;;;;8.17;6.53;;;3.50;99.90;;;;;;5014414;28;20590;-69
2023/10/17 02:11:55;;;;;;;5.50;5.00;;;3.60;99.90;;;;;;5014204;28;20198;-69
2023/10/17 02:14:22;;;;;;;5.97;4.93;;;3.60;99.90;;;;;;5022298;28;20437;-69
2023/10/17 02:16:48;;;;;;;7.60;6.53;;;3.50;99.90;;;;;;5014209;28;20442;-68
2023/10/17 02:19:14;;;;;;;7.07;5.00;;;3.50;99.90;;;;;;4995236;28;20436;-68
2023/10/17 02:21:40;;;;;;;7.67;5.70;;;3.40;99.90;;;;;;5011013;28;20556;-68
2023/10/17 02:24:06;;;;;;;7.90;6.27;;;3.30;99.90;;;;;;5012393;28;20199;-69
2023/10/17 02:26:41;;;;;;;6.57;5.97;;;3.30;99.90;;;;;;5012982;28;20222;-69
2023/10/17 02:29:11;;;;;;;6.87;5.60;;;3.40;99.90;;;;;;4994713;28;20462;-68
2023/10/17 02:31:37;;;;;;;6.50;5.50;;;3.40;99.90;;;;;;5012950;28;20456;-68
2023/10/17 02:34:03;;;;;;;8.17;5.47;;;3.40;99.90;;;;;;5025311;28;20432;-68
2023/10/17 02:36:29;;;;;;;6.50;5.73;;;3.40;99.90;;;;;;5013906;28;20422;-69
2023/10/17 02:38:55;;;;;;;5.50;5.00;;;3.40;99.90;;;;;;5021628;28;20185;-69
2023/10/17 02:41:22;;;;;;;6.00;5.40;;;3.50;99.90;;;;;;5011674;28;20206;-69
2023/10/17 02:43:55;;;;;;;6.93;5.67;;;3.50;99.90;;;;;;5021581;28;20532;-69
2023/10/17 02:46:26;;;;;;;6.13;5.50;;;3.50;99.90;;;;;;5031234;28;20453;-69
2023/10/17 02:48:53;;;;;;;6.43;5.27;;;3.50;99.90;;;;;;5015610;28;20532;-69
2023/10/17 02:53:55;;;;;;;6.63;5.97;;;3.50;99.90;;;;;;5007363;28;20440;-69
2023/10/17 02:56:25;;;;;;;5.73;5.20;;;3.50;99.90;;;;;;5010942;28;20943;-68
2023/10/17 03:01:30;;;;;;;6.23;5.63;;;3.40;99.90;;;;;;5008504;28;21008;-69
2023/10/17 03:03:56;;;;;;;7.40;5.50;;;3.40;99.90;;;;;;5014461;28;20561;-68
2023/10/17 03:06:21;;;;;;;7.07;4.97;;;3.50;99.90;;;;;;5009959;28;20509;-69
2023/10/17 03:09:00;;;;;;;6.83;6.13;;;3.50;99.90;;;;;;4995850;28;20171;-69
2023/10/17 03:11:35;;;;;;;7.30;5.40;;;3.50;99.90;;;;;;4987967;28;20251;-69
2023/10/17 03:14:12;;;;;;;6.67;5.57;;;3.50;99.90;;;;;;5012693;28;20480;-68
2023/10/17 03:16:43;;;;;;;5.33;4.83;;;3.60;99.90;;;;;;5013401;28;20794;-69
2023/10/17 03:19:11;;;;;;;7.10;6.40;;;3.60;99.90;;;;;;5013276;28;20440;-68
2023/10/17 03:21:39;;;;;;;9.03;5.10;;;3.60;99.90;;;;;;5007530;28;20576;-69
2023/10/17 03:24:05;;;;;;;5.87;5.30;;;3.60;99.90;;;;;;5015254;28;20557;-69
2023/10/17 03:26:39;;;;;;;6.83;5.20;;;3.60;99.90;;;;;;5019842;28;20513;-68
2023/10/17 03:29:19;;;;;;;6.97;5.87;;;3.50;99.90;;;;;;5013543;28;20177;-69
2023/10/17 03:31:48;;;;;;;7.43;5.83;;;3.40;99.90;;;;;;5011852;28;20449;-68
2023/10/17 03:34:18;;;;;;;6.70;5.93;;;3.40;99.90;;;;;;5012358;28;20429;-69
2023/10/17 03:36:49;;;;;;;6.00;5.40;;;3.40;99.90;;;;;;5016591;28;20432;-68
2023/10/17 03:39:27;;;;;;;6.93;6.23;;;3.40;99.90;;;;;;5025480;28;21196;-69
2023/10/17 03:41:58;;;;;;;7.23;6.53;;;3.40;99.90;;;;;;5009869;28;20459;-69
2023/10/17 03:44:30;;;;;;;7.20;6.13;;;3.40;99.90;;;;;;5017934;28;20464;-69
2023/10/17 03:46:59;;;;;;;7.87;6.50;;;3.50;99.90;;;;;;5032426;28;20413;-68
2023/10/17 03:49:25;;;;;;;8.70;6.30;;;3.50;99.90;;;;;;5018306;28;20487;-67
2023/10/17 03:51:54;;;;;;;7.43;6.67;;;3.50;99.90;;;;;;5011359;28;20457;-69
2023/10/17 03:54:22;;;;;;;8.23;6.17;;;3.50;99.90;;;;;;5012111;28;20464;-69
2023/10/17 03:57:02;;;;;;;6.87;5.67;;;3.40;99.90;;;;;;5012388;28;20438;-69
2023/10/17 03:59:38;;;;;;;8.93;5.70;;;3.50;99.90;;;;;;5011847;28;20432;-68
2023/10/17 04:02:03;;;;;;;7.57;6.77;;;3.50;99.90;;;;;;5006804;28;20483;-69
2023/10/17 04:04:35;;;;;;;6.67;6.00;;;3.50;99.90;;;;;;5012651;28;20823;-69
2023/10/17 04:07:05;;;;;;;7.10;6.40;;;3.60;99.90;;;;;;5022112;28;20170;-69
2023/10/17 04:09:37;;;;;;;6.90;6.20;;;3.60;99.90;;;;;;5023552;28;20916;-69
2023/10/17 04:12:03;;;;;;;7.87;6.00;;;3.60;99.90;;;;;;5006549;28;20434;-69
2023/10/17 04:14:34;;;;;;;7.83;6.10;;;3.70;99.90;;;;;;5004439;28;20964;-69
2023/10/17 04:17:03;;;;;;;6.20;5.60;;;3.70;99.90;;;;;;5032319;28;20476;-68
2023/10/17 04:19:31;;;;;;;7.57;6.20;;;3.70;99.90;;;;;;5029173;28;20441;-67
2023/10/17 04:24:34;;;;;;;8.00;6.93;;;3.60;99.90;;;;;;5010385;28;20465;-70
2023/10/17 04:27:18;;;;;;;8.80;6.37;;;3.70;99.90;;;;;;5018449;28;20179;-69
2023/10/17 04:29:50;;;;;;;9.10;6.40;;;3.70;99.90;;;;;;4993693;28;20480;-69
2023/10/17 04:32:16;;;;;;;9.10;6.30;;;3.80;99.90;;;;;;5011297;28;20526;-68
2023/10/17 04:34:48;;;;;;;6.07;5.47;;;3.80;99.90;;;;;;5023974;28;20755;-70
2023/10/17 04:37:24;;;;;;;8.60;6.03;;;3.80;99.90;;;;;;5021104;28;20444;-69
2023/10/17 04:39:50;;;;;;;6.37;5.47;;;3.80;99.90;;;;;;5000658;28;20440;-69
2023/10/17 04:42:25;;;;;;;6.73;6.03;;;3.90;99.90;;;;;;5010160;28;20467;-69
2023/10/17 04:44:52;;;;;;;6.03;5.53;;;3.90;99.90;;;;;;5020380;28;20838;-69
2023/10/17 04:49:50;;;;;;;8.70;6.50;;;3.90;99.90;;;;;;5011893;28;20438;-69
2023/10/17 04:52:29;;;;;;;6.47;5.80;;;4.00;99.90;;;;;;5015332;28;20504;-69
2023/10/17 04:55:01;;;;;;;7.57;6.13;;;4.00;99.90;;;;;;5015825;28;20491;-68
2023/10/17 04:57:54;;;;;;;6.30;5.20;;;4.10;99.90;;;;;;4997528;28;20437;-69
2023/10/17 05:00:25;;;;;;;8.10;6.73;;;4.10;99.90;;;;;;5025952;28;20438;-68
2023/10/17 06:17:20;;;;;;;9.13;8.13;;;4.60;99.90;;;;;;5004940;28;20438;-68
2023/10/17 06:19:46;;;;;;;13.80;9.53;;;4.60;99.90;;;;;;5007478;28;20915;-68
2023/10/17 06:30:05;;;;;;;19.10;12.97;;;4.90;99.90;;;;;;5014246;28;20795;-68
2023/10/17 06:35:23;;;;;;;14.60;10.87;;;4.90;99.90;;;;;;5009347;28;20491;-67
2023/10/17 06:37:49;;;;;;;12.27;10.30;;;5.00;99.90;;;;;;5013971;28;20457;-67
2023/10/17 06:40:16;;;;;;;11.87;10.67;;;5.00;99.90;;;;;;5014189;28;20422;-68
2023/10/17 06:42:49;;;;;;;14.90;11.23;;;5.10;99.90;;;;;;4992445;28;20971;-67
2023/10/17 06:45:19;;;;;;;17.57;12.70;;;5.10;99.90;;;;;;4993202;28;20539;-69
2023/10/17 06:47:49;;;;;;;20.13;13.13;;;5.20;99.90;;;;;;5013820;28;20418;-69
2023/10/17 06:55:28;;;;;;;10.00;8.80;;;5.60;99.90;;;;;;5013713;28;20425;-70
2023/10/17 06:57:56;;;;;;;10.43;8.87;;;5.80;99.90;;;;;;5013553;28;20440;-70
2023/10/17 07:00:28;;;;;;;9.53;8.50;;;5.90;99.90;;;;;;5013641;28;20422;-70
2023/10/17 07:02:57;;;;;;;9.50;8.60;;;6.00;99.90;;;;;;5010784;28;20870;-69
2023/10/17 07:05:23;;;;;;;10.10;8.83;;;5.90;99.90;;;;;;5000028;28;20528;-69
2023/10/17 07:07:59;;;;;;;13.67;10.13;;;6.00;99.90;;;;;;5003260;28;20457;-69
2023/10/17 07:13:35;;;;;;;13.30;10.30;;;6.20;99.90;;;;;;5012029;28;20437;-69
2023/10/17 07:16:13;;;;;;;11.43;10.00;;;6.20;99.90;;;;;;5007534;28;20456;-70
2023/10/17 07:18:46;;;;;;;9.77;8.43;;;6.20;99.90;;;;;;5010151;28;20426;-69
2023/10/17 07:23:42;;;;;;;8.67;7.83;;;6.20;99.90;;;;;;5006940;28;20433;-69
2023/10/17 07:26:17;;;;;;;10.93;8.10;;;6.30;99.90;;;;;;5012974;28;20953;-70
2023/10/17 07:28:44;;;;;;;10.73;9.33;;;6.20;99.90;;;;;;5013076;28;20440;-69
2023/10/17 07:31:11;;;;;;;9.60;8.60;;;6.30;99.90;;;;;;5013042;28;20441;-70
2023/10/17 07:33:43;;;;;;;10.70;9.03;;;6.20;99.90;;;;;;5008607;28;20439;-70
2023/10/17 07:36:15;;;;;;;11.90;8.67;;;6.30;99.90;;;;;;5000581;28;20449;-71
2023/10/17 07:38:43;;;;;;;12.87;8.10;;;6.40;99.90;;;;;;5012879;28;20994;-70
2023/10/17 07:41:13;;;;;;;8.60;7.80;;;6.60;99.90;;;;;;5012771;28;20441;-70
2023/10/17 07:43:58;;;;;;;11.53;10.33;;;6.60;99.90;;;;;;5008166;28;20435;-70
2023/10/17 07:46:26;;;;;;;9.87;7.83;;;6.70;99.90;;;;;;5010562;28;20468;-70
2023/10/17 07:49:03;;;;;;;11.33;7.63;;;6.90;99.90;;;;;;5012774;28;20417;-70
2023/10/17 07:51:28;;;;;;;8.63;7.43;;;7.10;99.90;;;;;;5012577;28;20492;-70
2023/10/17 07:53:54;;;;;;;9.63;8.63;;;7.30;99.90;;;;;;5011486;28;20469;-69
2023/10/17 07:56:25;;;;;;;8.90;8.10;;;7.40;99.90;;;;;;5012129;28;20218;-70
2023/10/17 07:58:57;;;;;;;10.33;8.47;;;7.50;99.90;;;;;;5012761;28;20696;-69
2023/10/17 08:01:32;;;;;;;9.90;8.90;;;7.90;99.90;;;;;;5012540;28;20430;-70
2023/10/17 08:06:42;;;;;;;9.70;8.33;;;8.20;99.90;;;;;;5004729;28;20428;-67
2023/10/17 08:11:49;;;;;;;9.97;8.97;;;8.20;99.90;;;;;;5012619;28;20444;-69
2023/10/17 08:14:17;;;;;;;9.53;8.40;;;8.10;99.90;;;;;;5003051;28;20441;-67
2023/10/17 08:16:43;;;;;;;9.47;8.30;;;8.30;99.90;;;;;;5012369;28;20422;-69
2023/10/17 08:19:15;;;;;;;11.17;8.20;;;8.40;99.90;;;;;;5011885;28;20509;-69
2023/10/17 08:21:49;;;;;;;10.93;9.60;;;8.70;99.90;;;;;;5011977;28;20457;-69
2023/10/17 08:24:26;;;;;;;10.13;9.07;;;8.90;99.90;;;;;;4985371;28;20521;-69
2023/10/17 08:27:13;;;;;;;10.57;9.40;;;9.10;99.90;;;;;;5011616;28;20867;-68
2023/10/17 08:29:42;;;;;;;12.40;9.23;;;9.50;99.90;;;;;;5012440;28;20418;-69
2023/10/17 08:32:38;;;;;;;10.00;9.00;;;9.70;99.90;;;;;;5012027;28;20441;-69
2023/10/17 08:35:17;;;;;;;14.53;9.67;;;9.80;99.90;;;;;;5003252;28;20788;-69
2023/10/17 08:37:43;;;;;;;15.03;10.00;;;9.90;99.90;;;;;;4992530;28;20514;-70
2023/10/17 08:40:32;;;;;;;11.60;9.67;;;9.90;99.90;;;;;;4992460;28;20845;-70
2023/10/17 08:43:00;;;;;;;13.90;10.27;;;10.00;99.90;;;;;;4993609;28;20453;-70
2023/10/17 08:45:26;;;;;;;15.47;11.30;;;10.00;99.90;;;;;;5011510;28;20486;-71
2023/10/17 08:48:00;;;;;;;11.83;10.63;;;9.80;99.90;;;;;;5012012;28;20418;-70
2023/10/17 08:50:27;;;;;;;12.53;9.83;;;9.90;99.90;;;;;;5011932;28;20472;-70
2023/10/17 08:52:56;;;;;;;11.40;9.77;;;10.00;99.90;;;;;;5010846;28;20410;-69
2023/10/17 08:55:22;;;;;;;12.17;10.97;;;10.30;99.90;;;;;;5009500;28;20772;-69
2023/10/17 08:57:49;;;;;;;12.43;11.13;;;10.30;99.90;;;;;;5011916;28;20421;-69
2023/10/17 09:00:23;;;;;;;13.33;11.03;;;10.20;99.90;;;;;;5011938;28;20428;-69
2023/10/17 09:02:56;;;;;;;11.63;10.30;;;10.30;99.90;;;;;;5010942;28;20504;-71
2023/10/17 09:05:29;;;;;;;13.17;10.50;;;10.30;99.90;;;;;;5002938;28;20469;-71
2023/10/17 09:07:58;;;;;;;12.50;10.90;;;10.50;99.90;;;;;;5011977;28;20472;-70
2023/10/17 09:10:40;;;;;;;13.03;10.93;;;10.60;99.90;;;;;;5011908;28;20432;-70
2023/10/17 09:15:59;;;;;;;11.90;10.70;;;11.20;99.90;;;;;;5007077;28;20575;-69
2023/10/17 09:18:28;;;;;;;13.90;10.73;;;11.70;99.90;;;;;;5000655;28;20964;-70
2023/10/17 09:20:55;;;;;;;14.83;11.33;;;12.20;99.90;;;;;;5011182;28;20465;-70
2023/10/17 09:23:23;;;;;;;14.80;13.23;;;12.20;99.90;;;;;;4993873;28;20422;-71
2023/10/17 09:25:56;;;;;;;12.47;11.23;;;12.00;99.90;;;;;;5005607;28;20837;-70
2023/10/17 09:28:25;;;;;;;12.10;10.97;;;11.70;99.90;;;;;;5009062;28;20429;-71
2023/10/17 09:31:08;;;;;;;12.77;11.50;;;12.00;99.90;;;;;;5011342;28;20442;-71
2023/10/17 09:33:45;;;;;;;13.77;11.83;;;12.80;99.90;;;;;;5002509;28;20495;-70
2023/10/17 09:36:13;;;;;;;13.17;11.97;;;13.20;99.90;;;;;;5008721;28;20509;-71
2023/10/17 09:38:45;;;;;;;13.37;11.73;;;13.50;99.90;;;;;;5014678;28;20425;-70
2023/10/17 09:41:18;;;;;;;14.10;12.63;;;13.90;99.90;;;;;;5014613;28;20446;-71
2023/10/17 09:43:49;;;;;;;14.23;12.53;;;14.30;99.90;;;;;;4992186;28;20517;-70
2023/10/17 09:46:15;;;;;;;13.83;12.50;;;14.10;99.20;;;;;;5010948;28;20433;-70
2023/10/17 09:48:42;;;;;;;14.07;12.60;;;13.60;99.90;;;;;;5014159;28;20501;-70
2023/10/17 09:51:12;;;;;;;13.67;12.43;;;13.20;99.90;;;;;;5014569;28;20196;-70
2023/10/17 09:53:40;;;;;;;14.80;13.20;;;13.60;99.90;;;;;;4993725;28;20426;-68
2023/10/17 09:56:15;;;;;;;36.23;18.57;;;13.20;99.90;;;;;;5010293;28;20437;-70
2023/10/17 09:58:45;;;;;;;26.70;14.20;;;13.00;99.90;;;;;;5014698;28;20770;-69
2023/10/17 10:01:17;;;;;;;15.97;13.67;;;13.40;99.90;;;;;;5014584;28;20434;-69
2023/10/17 10:03:47;;;;;;;14.57;12.43;;;13.20;99.90;;;;;;5009606;28;20803;-69
2023/10/17 10:06:30;;;;;;;13.00;11.40;;;12.80;99.90;;;;;;5011111;28;20464;-69
2023/10/17 10:09:17;;;;;;;13.23;11.90;;;13.10;99.90;;;;;;5014520;28;20418;-69
2023/10/17 10:11:48;;;;;;;13.30;12.00;;;13.60;99.90;;;;;;5014906;28;20445;-69
2023/10/17 10:14:36;;;;;;;13.77;12.40;;;13.80;99.90;;;;;;5009232;28;20439;-70
2023/10/17 10:17:05;;;;;;;13.40;12.03;;;13.70;99.90;;;;;;5008812;28;20773;-70
2023/10/17 10:19:57;;;;;;;16.13;12.97;;;14.00;99.90;;;;;;5006253;28;20456;-70
2023/10/17 10:22:23;;;;;;;14.67;11.60;;;14.70;99.10;;;;;;5014126;28;20596;-70
2023/10/17 10:25:04;;;;;;;17.37;12.77;;;15.40;96.90;;;;;;5008255;28;20490;-69
2023/10/17 10:27:30;;;;;;;13.47;11.97;;;16.00;94.20;;;;;;5013153;28;20550;-70
2023/10/17 10:30:30;;;;;;;14.43;13.03;;;15.90;93.30;;;;;;5014444;28;20430;-70
2023/10/17 10:32:58;;;;;;;13.93;12.70;;;16.40;92.70;;;;;;5011555;28;20549;-70
2023/10/17 10:35:23;;;;;;;14.93;13.53;;;16.40;92.10;;;;;;5004693;28;21047;-69
2023/10/17 10:37:54;;;;;;;15.43;13.20;;;15.50;93.10;;;;;;5014018;28;20417;-69
2023/10/17 10:40:30;;;;;;;15.10;13.60;;;15.10;94.70;;;;;;5013933;28;20597;-68
2023/10/17 10:42:59;;;;;;;15.27;13.87;;;14.80;95.70;;;;;;5013752;28;20420;-69
2023/10/17 10:48:14;;;;;;;14.67;13.37;;;14.40;97.60;;;;;;5012909;28;20480;-70
2023/10/17 10:50:42;;;;;;;14.63;13.13;;;14.50;97.30;;;;;;5013774;28;20452;-69
2023/10/17 10:53:20;;;;;;;15.53;14.03;;;14.50;97.50;;;;;;4995834;28;20931;-69
2023/10/17 10:55:56;;;;;;;15.03;13.47;;;14.60;97.30;;;;;;5003785;28;20547;-70
2023/10/17 10:58:27;;;;;;;13.30;12.10;;;14.20;97.70;;;;;;5011544;28;20425;-69
2023/10/17 11:00:54;;;;;;;14.93;13.53;;;14.30;97.90;;;;;;5010445;28;20472;-70
2023/10/17 11:03:23;;;;;;;15.03;13.43;;;14.20;97.90;;;;;;5012003;28;20477;-68
2023/10/17 11:05:57;;;;;;;14.73;13.37;;;14.20;98.60;;;;;;5011934;28;20880;-69
2023/10/17 11:08:24;;;;;;;15.33;13.93;;;14.20;99.40;;;;;;5012173;28;20438;-67
2023/10/17 11:10:51;;;;;;;13.63;12.33;;;14.60;98.60;;;;;;5012123;28;20490;-68
2023/10/17 11:13:16;;;;;;;13.07;11.77;;;14.70;97.50;;;;;;5011114;28;20470;-69
2023/10/17 11:15:45;;;;;;;13.23;11.90;;;15.20;96.60;;;;;;5012174;28;20481;-68
2023/10/17 11:18:12;;;;;;;14.10;12.37;;;15.70;94.30;;;;;;5011956;28;20285;-68
2023/10/17 11:20:41;;;;;;;15.27;11.60;;;15.40;94.60;;;;;;5011822;28;20469;-66
2023/10/17 11:23:10;;;;;;;14.83;11.30;;;15.30;94.70;;;;;;5001427;22;20511;-67
2023/10/17 11:25:37;;;;;;;14.00;12.60;;;15.00;95.70;;;;;;4954944;28;20550;-67
2023/10/17 11:28:07;;;;;;;14.20;12.80;;;14.50;96.50;;;;;;4956701;28;20478;-67
2023/10/17 11:30:45;;;;;;;14.87;13.10;;;14.30;97.40;;;;;;4973954;28;20525;-67
2023/10/17 11:33:14;;;;;;;12.13;11.03;;;14.40;98.10;;;;;;4972655;28;20455;-67
2023/10/17 11:35:47;;;;;;;13.03;11.80;;;14.80;97.00;;;;;;4973428;28;20798;-66
2023/10/17 11:38:34;;;;;;;14.03;12.70;;;14.90;96.50;;;;;;4973953;28;20461;-67
2023/10/17 11:41:09;;;;;;;15.60;14.00;;;15.00;96.50;;;;;;4973985;28;20427;-67
2023/10/17 11:43:50;;;;;;;15.63;12.77;;;14.90;96.90;;;;;;4972637;28;20443;-67
2023/10/17 11:46:27;;;;;;;13.80;12.40;;;15.00;97.00;;;;;;4972646;28;20451;-66
2023/10/17 11:48:54;;;;;;;14.90;13.30;;;15.00;96.80;;;;;;4972624;28;20827;-67
2023/10/17 11:51:29;;;;;;;13.93;12.57;;;15.00;96.90;;;;;;4973549;28;20917;-66
2023/10/17 11:54:07;;;;;;;14.10;12.70;;;14.90;96.90;;;;;;4971398;28;20434;-67
2023/10/17 11:56:37;;;;;;;14.77;13.07;;;15.00;97.40;;;;;;4973443;28;20427;-67
2023/10/17 11:59:06;;;;;;;15.17;11.90;;;15.20;97.30;;;;;;4973434;28;20416;-67
2023/10/17 12:01:32;;;;;;;15.30;12.97;;;15.30;96.80;;;;;;4973585;28;20521;-66
2023/10/17 12:04:06;;;;;;;13.43;12.03;;;15.20;97.30;;;;;;4972266;28;20541;-67
2023/10/17 12:06:35;;;;;;;14.83;12.30;;;14.90;97.30;;;;;;4973306;28;20514;-67
2023/10/17 12:09:17;;;;;;;14.57;13.07;;;14.80;98.50;;;;;;4973465;28;20442;-66
2023/10/17 12:11:51;;;;;;;15.13;12.83;;;14.60;99.10;;;;;;4973404;28;20454;-67
2023/10/17 12:14:19;;;;;;;14.30;12.90;;;14.40;99.90;;;;;;4972279;28;20443;-66
2023/10/17 12:16:53;;;;;;;13.20;12.00;;;14.30;99.90;;;;;;4973365;28;20435;-67
2023/10/17 12:19:26;;;;;;;14.33;12.93;;;14.30;99.90;;;;;;4971656;28;20435;-67
2023/10/17 12:21:55;;;;;;;16.67;13.90;;;14.80;99.90;;;;;;4971912;28;20498;-67
2023/10/17 12:24:28;;;;;;;13.73;12.43;;;15.40;98.00;;;;;;4970697;28;20455;-67
2023/10/17 12:26:57;;;;;;;14.07;12.67;;;16.00;96.10;;;;;;4971983;28;20803;-67
2023/10/17 12:29:26;;;;;;;13.40;12.00;;;16.60;94.80;;;;;;4971867;28;20427;-67
2023/10/17 12:31:57;;;;;;;13.40;12.20;;;17.10;92.90;;;;;;4971983;28;20454;-67
2023/10/17 12:34:23;;;;;;;15.03;13.27;;;17.30;92.30;;;;;;4971407;28;20853;-66
2023/10/17 12:36:49;;;;;;;15.43;11.60;;;17.00;91.90;;;;;;4972901;28;20435;-67
2023/10/17 12:39:16;;;;;;;13.50;12.07;;;17.00;92.50;;;;;;4973140;28;20186;-67
2023/10/17 12:41:43;;;;;;;14.10;12.60;;;16.10;93.60;;;;;;4972045;28;20204;-67
2023/10/17 12:44:09;;;;;;;15.27;13.77;;;15.60;94.80;;;;;;4972483;28;20459;-67
2023/10/17 12:46:35;;;;;;;16.80;13.30;;;15.30;96.70;;;;;;4972868;28;20782;-65
2023/10/17 12:49:01;;;;;;;13.10;11.80;;;15.00;98.00;;;;;;4972960;28;20531;-65
2023/10/17 12:51:27;;;;;;;14.27;12.80;;;15.20;99.00;;;;;;4970832;28;20456;-66
2023/10/17 12:53:53;;;;;;;13.20;11.80;;;15.20;98.20;;;;;;4971368;28;20259;-66
2023/10/17 12:56:20;;;;;;;15.73;13.23;;;14.80;98.40;;;;;;4972968;28;20412;-67
2023/10/17 12:58:48;;;;;;;13.80;12.40;;;14.60;99.80;;;;;;4972870;28;20422;-67
2023/10/17 13:01:14;;;;;;;14.87;12.30;;;14.10;99.90;;;;;;4970922;28;20435;-67
2023/10/17 13:03:39;;;;;;;14.67;12.87;;;13.90;99.90;;;;;;4971516;28;20501;-67
2023/10/17 13:06:13;;;;;;;14.80;13.40;;;13.70;99.90;;;;;;4971435;28;20262;-67
2023/10/17 13:08:40;;;;;;;18.47;12.00;;;13.50;99.90;;;;;;4972162;28;20180;-67
2023/10/17 13:11:06;;;;;;;15.57;14.17;;;13.30;99.90;;;;;;4972833;28;20454;-68
2023/10/17 13:13:32;;;;;;;13.67;12.47;;;13.20;99.90;;;;;;4976078;28;20419;-67
2023/10/17 13:15:59;;;;;;;16.13;14.40;;;13.10;99.90;;;;;;4976441;28;20430;-67
2023/10/17 13:18:25;;;;;;;17.87;12.27;;;13.20;99.90;;;;;;4976530;28;20183;-67
2023/10/17 13:20:54;;;;;;;14.30;12.63;;;13.20;99.90;;;;;;4975145;28;20439;-67
2023/10/17 13:23:20;;;;;;;14.07;12.57;;;13.10;99.90;;;;;;4975812;28;20561;-67
2023/10/17 13:25:46;;;;;;;14.50;12.90;;;13.00;99.90;;;;;;4976238;28;20976;-67
2023/10/17 13:28:12;;;;;;;14.50;13.00;;;13.00;99.90;;;;;;4976185;28;20822;-67
2023/10/17 13:30:38;;;;;;;14.70;13.30;;;12.90;99.90;;;;;;4975268;28;20471;-67
2023/10/17 13:33:04;;;;;;;13.97;12.43;;;13.00;99.90;;;;;;4975732;28;20995;-67
2023/10/17 13:35:30;;;;;;;14.33;13.07;;;12.90;99.90;;;;;;4976129;28;20172;-67
2023/10/17 13:37:58;;;;;;;17.03;13.93;;;12.90;99.90;;;;;;4976082;28;20424;-67
2023/10/17 13:40:25;;;;;;;14.73;13.23;;;13.20;99.90;;;;;;4975505;28;20184;-67
2023/10/17 13:42:52;;;;;;;15.57;13.97;;;13.40;99.90;;;;;;4975088;28;20451;-67
2023/10/17 13:45:22;;;;;;;14.67;12.77;;;13.60;99.90;;;;;;4975977;28;20944;-68
2023/10/17 13:47:52;;;;;;;15.70;14.00;;;13.50;99.90;;;;;;4975902;28;20422;-67
2023/10/17 13:50:21;;;;;;;13.37;12.10;;;13.50;99.90;;;;;;4975958;28;20415;-67
2023/10/17 13:52:48;;;;;;;15.00;13.07;;;13.40;99.90;;;;;;4972833;28;21059;-67
2023/10/17 13:55:26;;;;;;;14.00;12.70;;;13.30;99.90;;;;;;4975698;28;20430;-67
2023/10/17 13:58:01;;;;;;;13.30;12.07;;;13.20;99.90;;;;;;4975745;28;20434;-67
2023/10/17 14:00:42;;;;;;;15.53;14.00;;;13.30;99.90;;;;;;4975305;28;20430;-67
2023/10/17 14:03:08;;;;;;;14.53;13.23;;;13.40;99.90;;;;;;4971168;28;20482;-67
2023/10/17 14:05:33;;;;;;;13.43;12.13;;;13.30;99.90;;;;;;4975450;28;20464;-67
2023/10/17 14:07:59;;;;;;;21.73;13.23;;;13.30;99.90;;;;;;4975491;28;20172;-67
2023/10/17 14:10:24;;;;;;;16.00;14.40;;;13.30;99.90;;;;;;4975716;28;20172;-67
2023/10/17 14:12:51;;;;;;;14.00;12.60;;;13.20;99.90;;;;;;4972485;28;20677;-67
2023/10/17 14:15:16;;;;;;;17.23;12.97;;;13.20;99.90;;;;;;4974522;28;20199;-67
2023/10/17 14:17:45;;;;;;;14.33;13.00;;;13.20;99.90;;;;;;4974568;28;20443;-67
2023/10/17 14:20:16;;;;;;;14.67;13.27;;;13.10;99.90;;;;;;4975338;28;20669;-67
2023/10/17 14:23:08;;;;;;;13.67;12.47;;;13.20;99.90;;;;;;4973489;28;20891;-67
2023/10/17 14:28:16;;;;;;;13.53;12.33;;;13.40;99.90;;;;;;4979627;28;20446;-67
2023/10/17 14:30:42;;;;;;;13.67;12.37;;;13.40;99.90;;;;;;4981216;28;20429;-67
2023/10/17 14:33:10;;;;;;;13.63;12.30;;;13.40;99.90;;;;;;4989427;28;20843;-67
2023/10/17 14:35:36;;;;;;;13.27;11.90;;;13.50;99.90;;;;;;4974627;28;20549;-67
2023/10/17 14:38:02;;;;;;;14.70;13.40;;;13.50;99.90;;;;;;4973978;28;20439;-68
2023/10/17 14:40:30;;;;;;;12.53;11.43;;;13.40;99.90;;;;;;4978204;28;20182;-67
2023/10/17 14:42:55;;;;;;;11.70;10.60;;;13.30;99.90;;;;;;4979632;28;20443;-68
2023/10/17 14:45:24;;;;;;;12.00;10.97;;;13.30;99.90;;;;;;4973991;28;20456;-66
2023/10/17 14:47:50;;;;;;;12.50;11.20;;;13.30;99.90;;;;;;4973638;28;20186;-68
2023/10/17 14:50:15;;;;;;;14.80;13.40;;;13.30;99.90;;;;;;4974778;28;20980;-67
2023/10/17 14:52:41;;;;;;;13.40;12.10;;;13.30;99.90;;;;;;4973177;28;20451;-68
2023/10/17 14:55:14;;;;;;;13.00;11.80;;;13.10;99.90;;;;;;4974657;28;20208;-67
2023/10/17 14:57:41;;;;;;;13.53;11.00;;;12.90;99.90;;;;;;4973737;28;20193;-67